createdAt,value
2022-12-01T00:02:35.000Z,91.97
2022-12-01T00:07:35.000Z,88.12
2022-12-01T00:12:35.000Z,87.11
2022-12-01T00:17:34.000Z,87.01
2022-12-01T00:22:35.000Z,89.96
2022-12-01T00:27:34.000Z,93.05
2022-12-01T00:32:35.000Z,87.6
2022-12-01T00:37:34.000Z,92.45
2022-12-01T00:42:35.000Z,89.99
2022-12-01T00:52:35.000Z,94.76
2022-12-01T00:57:34.000Z,91.3
2022-12-01T01:02:35.000Z,89.61
2022-12-01T01:07:35.000Z,89.38
2022-12-01T01:12:35.000Z,86.8
2022-12-01T01:17:34.000Z,81.29
2022-12-01T01:22:35.000Z,84.26
2022-12-01T01:27:35.000Z,84.26
2022-12-01T01:32:34.000Z,83.18
2022-12-01T01:37:34.000Z,86.97
2022-12-01T01:42:35.000Z,86.55
2022-12-01T01:47:34.000Z,89.49
2022-12-01T01:52:35.000Z,95.25
2022-12-01T01:57:34.000Z,93.93
2022-12-01T02:02:35.000Z,89.99
2022-12-01T02:07:34.000Z,92.12
2022-12-01T02:12:35.000Z,90.35
2022-12-01T02:17:34.000Z,92.34
2022-12-01T02:22:35.000Z,90.8
2022-12-01T02:27:34.000Z,90.28
2022-12-01T02:32:35.000Z,90.61
2022-12-01T02:37:35.000Z,90.61
2022-12-01T02:42:34.000Z,93.04
2022-12-01T02:47:35.000Z,92.15
2022-12-01T02:52:35.000Z,92.32
2022-12-01T02:57:35.000Z,88.7
2022-12-01T03:02:34.000Z,84.94
2022-12-01T03:07:35.000Z,82.91
2022-12-01T03:12:35.000Z,86.9
2022-12-01T03:17:34.000Z,84.65
2022-12-01T03:27:35.000Z,91.29
2022-12-01T03:32:35.000Z,88.07
2022-12-01T03:37:34.000Z,86.83
2022-12-01T03:42:35.000Z,85.6
2022-12-01T03:47:34.000Z,84.54
2022-12-01T03:52:35.000Z,86.04
2022-12-01T03:57:35.000Z,89.01
2022-12-01T04:02:35.000Z,88.94
2022-12-01T04:07:35.000Z,92.67
2022-12-01T04:12:35.000Z,97.47
2022-12-01T04:22:34.000Z,95.04
2022-12-01T04:27:35.000Z,90.41
2022-12-01T04:32:34.000Z,90.41
2022-12-01T04:37:34.000Z,87.82
2022-12-01T04:42:35.000Z,88.03
2022-12-01T04:47:34.000Z,87.6
2022-12-01T04:57:34.000Z,82.92
2022-12-01T05:02:35.000Z,82.18
2022-12-01T05:07:34.000Z,80.19
2022-12-01T05:12:35.000Z,80.19
2022-12-01T05:17:34.000Z,78.61
2022-12-01T05:23:13.000Z,81.71
2022-12-01T05:27:34.000Z,85.22
2022-12-01T05:32:35.000Z,88.33
2022-12-01T05:37:34.000Z,88.07
2022-12-01T05:42:35.000Z,94.35
2022-12-01T05:47:34.000Z,107.32
2022-12-01T05:52:35.000Z,92.14
2022-12-01T05:57:34.000Z,84.61
2022-12-01T06:02:34.000Z,126.13
2022-12-01T06:07:35.000Z,126.13
2022-12-01T06:12:34.000Z,131.1
2022-12-01T06:17:34.000Z,96.77
2022-12-01T06:22:34.000Z,82.16
2022-12-01T06:27:34.000Z,79.69
2022-12-01T06:32:35.000Z,84.24
2022-12-01T06:37:35.000Z,97.11
2022-12-01T06:42:35.000Z,109.07
2022-12-01T06:47:35.000Z,136.99
2022-12-01T06:52:35.000Z,132.3
2022-12-01T06:57:35.000Z,125.79
2022-12-01T07:07:35.000Z,119.69
2022-12-01T07:12:35.000Z,124.3
2022-12-01T07:17:34.000Z,137.13
2022-12-01T07:27:34.000Z,84.97
2022-12-01T07:32:34.000Z,79.82
2022-12-01T07:37:35.000Z,79.49
2022-12-01T07:47:35.000Z,75.8
2022-12-01T07:52:34.000Z,74.96
2022-12-01T08:02:34.000Z,71.66
2022-12-01T08:07:39.000Z,72.78
2022-12-01T08:12:34.000Z,74
2022-12-01T08:17:35.000Z,74.35
2022-12-01T08:22:34.000Z,86.52
2022-12-01T08:27:35.000Z,86.52
2022-12-01T08:32:34.000Z,94.93
2022-12-01T08:37:35.000Z,90.41
2022-12-01T08:42:34.000Z,76.42
2022-12-01T08:47:35.000Z,74.18
2022-12-01T08:52:34.000Z,74.82
2022-12-01T08:57:34.000Z,77.48
2022-12-01T09:02:34.000Z,77.91
2022-12-01T09:07:37.000Z,77.99
2022-12-01T09:12:35.000Z,75.56
2022-12-01T09:17:35.000Z,76.42
2022-12-01T09:22:35.000Z,75.78
2022-12-01T09:27:34.000Z,84.76
2022-12-01T09:32:35.000Z,86.32
2022-12-01T09:37:34.000Z,77.63
2022-12-01T09:42:35.000Z,77.63
2022-12-01T09:47:35.000Z,75.89
2022-12-01T09:57:35.000Z,73.31
2022-12-01T10:02:35.000Z,72.48
2022-12-01T10:07:34.000Z,67.28
2022-12-01T10:12:34.000Z,62.71
2022-12-01T10:17:35.000Z,63.55
2022-12-01T10:22:34.000Z,63.55
2022-12-01T10:27:35.000Z,61.3
2022-12-01T10:32:34.000Z,62.04
2022-12-01T10:37:35.000Z,61.41
2022-12-01T10:42:35.000Z,61.85
2022-12-01T10:47:34.000Z,62.43
2022-12-01T10:52:34.000Z,63.19
2022-12-01T10:57:35.000Z,66.47
2022-12-01T11:02:35.000Z,70.52
2022-12-01T11:07:35.000Z,78.55
2022-12-01T11:12:35.000Z,82.19
2022-12-01T11:17:34.000Z,80.75
2022-12-01T11:22:34.000Z,84.35
2022-12-01T11:27:35.000Z,85.78
2022-12-01T11:32:34.000Z,85.9
2022-12-01T11:37:35.000Z,85.9
2022-12-01T11:42:35.000Z,85.7
2022-12-01T11:47:35.000Z,84.24
2022-12-01T11:52:35.000Z,78.44
2022-12-01T11:57:44.000Z,73.6
2022-12-01T12:02:34.000Z,71.42
2022-12-01T12:07:34.000Z,73.28
2022-12-01T12:12:35.000Z,70.03
2022-12-01T12:17:34.000Z,69.74
2022-12-01T12:22:35.000Z,72.65
2022-12-01T12:27:35.000Z,78.97
2022-12-01T12:32:35.000Z,86.05
2022-12-01T12:37:35.000Z,87.71
2022-12-01T12:42:34.000Z,86.37
2022-12-01T12:47:35.000Z,85.1
2022-12-01T12:52:34.000Z,85.1
2022-12-01T12:57:35.000Z,84.77
2022-12-01T13:02:35.000Z,83.38
2022-12-01T13:07:35.000Z,83.63
2022-12-01T13:12:34.000Z,83.84
2022-12-01T13:17:34.000Z,86.23
2022-12-01T13:22:34.000Z,82.25
2022-12-01T13:27:34.000Z,85.71
2022-12-01T13:32:35.000Z,83.46
2022-12-01T13:37:35.000Z,85.76
2022-12-01T13:42:34.000Z,90.11
2022-12-01T13:47:35.000Z,88.13
2022-12-01T13:52:35.000Z,88.09
2022-12-01T13:57:34.000Z,85.76
2022-12-01T14:02:35.000Z,86.38
2022-12-01T14:07:35.000Z,86.38
2022-12-01T14:12:35.000Z,87.91
2022-12-01T14:17:34.000Z,91.57
2022-12-01T14:22:35.000Z,92.57
2022-12-01T14:27:35.000Z,94.67
2022-12-01T14:32:34.000Z,95.43
2022-12-01T14:37:35.000Z,95.98
2022-12-01T14:47:35.000Z,92.85
2022-12-01T14:52:35.000Z,96.48
2022-12-01T14:57:34.000Z,99.99
2022-12-01T15:02:35.000Z,96.76
2022-12-01T15:07:35.000Z,100.97
2022-12-01T15:12:35.000Z,100.97
2022-12-01T15:17:35.000Z,97.78
2022-12-01T15:22:34.000Z,98.9
2022-12-01T15:27:35.000Z,97.09
2022-12-01T15:32:35.000Z,95.09
2022-12-01T15:37:34.000Z,107.21
2022-12-01T15:42:34.000Z,93.52
2022-12-01T15:47:35.000Z,91.84
2022-12-01T15:52:34.000Z,94.86
2022-12-01T15:57:35.000Z,92.52
2022-12-01T16:02:35.000Z,87.24
2022-12-01T16:07:38.000Z,81.52
2022-12-01T16:12:34.000Z,87.3
2022-12-01T16:17:34.000Z,87.29
2022-12-01T16:22:35.000Z,87.29
2022-12-01T16:27:35.000Z,87.61
2022-12-01T16:32:35.000Z,89.65
2022-12-01T16:37:35.000Z,82.58
2022-12-01T16:42:34.000Z,80.5
2022-12-01T16:47:35.000Z,75.62
2022-12-01T16:52:55.000Z,83.41
2022-12-01T16:57:34.000Z,86.62
2022-12-01T17:02:35.000Z,91.46
2022-12-01T17:07:34.000Z,91.56
2022-12-01T17:12:35.000Z,93
2022-12-01T17:22:35.000Z,92.43
2022-12-01T17:27:35.000Z,91.26
2022-12-01T17:32:34.000Z,94.23
2022-12-01T17:37:35.000Z,92.34
2022-12-01T17:42:34.000Z,90.23
2022-12-01T17:47:35.000Z,95.16
2022-12-01T17:52:38.000Z,99.22
2022-12-01T17:57:35.000Z,101.45
2022-12-01T18:02:35.000Z,120.94
2022-12-01T18:07:35.000Z,127.85
2022-12-01T18:12:34.000Z,127.85
2022-12-01T18:17:35.000Z,118.16
2022-12-01T18:22:34.000Z,101.37
2022-12-01T18:27:35.000Z,100.9
2022-12-01T18:32:35.000Z,95.33
2022-12-01T18:37:35.000Z,94.5
2022-12-01T18:42:35.000Z,97.25
2022-12-01T18:52:34.000Z,98.59
2022-12-01T18:57:34.000Z,101.58
2022-12-01T19:02:35.000Z,101.6
2022-12-01T19:07:40.000Z,101.58
2022-12-01T19:12:35.000Z,98.65
2022-12-01T19:17:34.000Z,94.41
2022-12-01T19:22:35.000Z,93.51
2022-12-01T19:27:35.000Z,94.05
2022-12-01T19:32:34.000Z,94.44
2022-12-01T19:37:35.000Z,95.2
2022-12-01T19:42:35.000Z,106.17
2022-12-01T19:47:35.000Z,103.66
2022-12-01T19:52:34.000Z,113.21
2022-12-01T19:57:35.000Z,105.21
2022-12-01T20:02:39.000Z,105.21
2022-12-01T20:07:35.000Z,100.6
2022-12-01T20:12:35.000Z,120.38
2022-12-01T20:17:34.000Z,120.31
2022-12-01T20:22:35.000Z,116.04
2022-12-01T20:27:34.000Z,126.84
2022-12-01T20:32:35.000Z,121.72
2022-12-01T20:37:34.000Z,135.09
2022-12-01T20:42:35.000Z,147.06
2022-12-01T20:47:34.000Z,144.09
2022-12-01T20:52:35.000Z,138.46
2022-12-01T20:57:34.000Z,158.97
2022-12-01T21:02:35.000Z,148.77
2022-12-01T21:07:34.000Z,146.73
2022-12-01T21:12:34.000Z,155.68
2022-12-01T21:17:35.000Z,155.68
2022-12-01T21:22:35.000Z,168.7
2022-12-01T21:27:34.000Z,162.41
2022-12-01T21:32:35.000Z,162.63
2022-12-01T21:37:34.000Z,168.96
2022-12-01T21:42:35.000Z,166.98
2022-12-01T21:47:34.000Z,164.35
2022-12-01T21:52:35.000Z,157.58
2022-12-01T21:57:34.000Z,152.18
2022-12-01T22:02:35.000Z,150.1
2022-12-01T22:07:34.000Z,142.38
2022-12-01T22:12:35.000Z,137.42
2022-12-01T22:17:34.000Z,135.25
2022-12-01T22:22:35.000Z,170.97
2022-12-01T22:27:35.000Z,170.97
2022-12-01T22:32:34.000Z,162.58
2022-12-01T22:37:34.000Z,136.46
2022-12-01T22:42:35.000Z,122.59
2022-12-01T22:47:34.000Z,110.99
2022-12-01T22:57:35.000Z,109.29
2022-12-01T23:02:34.000Z,103.48
2022-12-01T23:07:35.000Z,101.69
2022-12-01T23:12:34.000Z,93.93
2022-12-01T23:17:35.000Z,93.93
2022-12-01T23:22:34.000Z,92.67
2022-12-01T23:27:34.000Z,95.14
2022-12-01T23:32:35.000Z,93.61
2022-12-01T23:37:34.000Z,101.65
2022-12-01T23:42:35.000Z,101.6
2022-12-01T23:47:35.000Z,118.77
2022-12-01T23:52:35.000Z,118.52
2022-12-01T23:57:34.000Z,110.48
